Hasvik — LNAR — position and weather

sailwx.info

Track history (hours):
 
Tides and Currents Weather Stations Pressure Air Temp Water Temp Dewpoint Dewpoint Depression Visibility Wind Speed Wind Dir Waves Ship Positions

Hasvik

Last reported at 2018-Jun-18 09:00 UTC. Time now 2018-Jun-18 09:31 UTC.
Position N 70°16' E 022°19'.

Length 62 m; draft 3.5 m.

Type: Passenger vessel. MMSI: 258287000.

Date/timePositionNaut miles runAvg speedWind from/ knotsBaromVisibWave heightAir tempDewpointWater temp
2018-Jun-18 09:00N 70°16' E 022°19'611.5
2018-Jun-18 08:30N 70°21' E 022°15'612.3
2018-Jun-18 08:00N 70°28' E 022°11'0 0.3
2018-Jun-18 07:30N 70°28' E 022°12'611.8
2018-Jun-18 07:00N 70°22' E 022°16'611.6
2018-Jun-18 06:30N 70°16' E 022°19'2 4.8
2018-Jun-18 05:59N 70°14' E 022°17'1 2.9
2018-Jun-18 05:30N 70°14' E 022°21'4 8.1
2018-Jun-18 04:59N 70°18' E 022°18'611.6
2018-Jun-18 04:30N 70°23' E 022°14'611.4
2018-Jun-18 04:00N 70°29' E 022°10'0 0.1
2018-Jun-18 03:29N 70°29' E 022°10'0 0.0
2018-Jun-18 03:00N 70°29' E 022°10'0 0.0
2018-Jun-18 02:30N 70°29' E 022°10'0 0.0
2018-Jun-18 01:59N 70°29' E 022°10'0 0.0
2018-Jun-18 01:30N 70°29' E 022°10'0 0.0
2018-Jun-18 01:00N 70°29' E 022°10'0 0.0
2018-Jun-18 00:30N 70°29' E 022°10'0 0.0
2018-Jun-18 00:00N 70°29' E 022°10'0 0.0
2018-Jun-17 23:30N 70°29' E 022°10'0 0.0
2018-Jun-17 23:00N 70°29' E 022°10'0 0.0
2018-Jun-17 22:29N 70°29' E 022°10'0 0.0
2018-Jun-17 22:00N 70°29' E 022°10'0 0.0
2018-Jun-17 21:30N 70°29' E 022°10'0 0.0
2018-Jun-17 21:00N 70°29' E 022°10'0 0.0
2018-Jun-17 20:30N 70°29' E 022°10'0 0.0
2018-Jun-17 20:00N 70°29' E 022°10'0 0.0
2018-Jun-17 19:30N 70°29' E 022°10'4 7.4
2018-Jun-17 19:00N 70°26' E 022°13'612.3
2018-Jun-17 18:30N 70°19' E 022°17'611.4
2018-Jun-17 18:00N 70°14' E 022°21'2 3.5
2018-Jun-17 17:29N 70°14' E 022°16'2 3.4
2018-Jun-17 17:00N 70°15' E 022°20'612.0
2018-Jun-17 16:30N 70°21' E 022°16'611.7
2018-Jun-17 16:00N 70°26' E 022°12'2 4.9
2018-Jun-17 15:30N 70°29' E 022°10'611.5
2018-Jun-17 15:00N 70°23' E 022°15'611.6
2018-Jun-17 14:30N 70°18' E 022°18'4 7.0
2018-Jun-17 13:59N 70°14' E 022°21'0 0.5
2018-Jun-17 13:30N 70°14' E 022°21'0 0.7
2018-Jun-17 12:59N 70°14' E 022°21'0 0.0
2018-Jun-17 12:30N 70°14' E 022°21'0 0.0
2018-Jun-17 12:00N 70°14' E 022°21'0 0.0
2018-Jun-17 11:30N 70°14' E 022°21'0 0.0
2018-Jun-17 10:59N 70°14' E 022°21'0 0.0
2018-Jun-17 10:30N 70°14' E 022°21'0 0.0
2018-Jun-17 10:00N 70°14' E 022°21'0 0.0
2018-Jun-17 09:30N 70°14' E 022°21'2 3.9
2018-Jun-17 08:59N 70°16' E 022°19'611.7
2018-Jun-17 08:30N 70°22' E 022°16'611.6
2018-Jun-17 08:00N 70°27' E 022°12'2 3.2
2018-Jun-17 07:29N 70°29' E 022°10'0 0.0
2018-Jun-17 07:00N 70°29' E 022°10'0 0.0
2018-Jun-17 06:30N 70°29' E 022°10'0 0.0
2018-Jun-17 05:59N 70°29' E 022°10'0 0.0
2018-Jun-17 05:30N 70°29' E 022°10'0 0.0
2018-Jun-17 05:00N 70°29' E 022°10'0 0.0
2018-Jun-17 04:29N 70°29' E 022°10'0 0.0
2018-Jun-17 04:00N 70°29' E 022°10'0 0.0
2018-Jun-17 03:30N 70°29' E 022°10'0 0.0
2018-Jun-17 03:00N 70°29' E 022°10'0 0.0
2018-Jun-17 02:30N 70°29' E 022°10'0 0.0
2018-Jun-17 02:00N 70°29' E 022°10'0 0.0
2018-Jun-17 01:29N 70°29' E 022°10'0 0.0
2018-Jun-17 01:00N 70°29' E 022°10'0 0.0
2018-Jun-17 00:30N 70°29' E 022°10'0 0.0
2018-Jun-17 00:00N 70°29' E 022°10'0 0.0
2018-Jun-16 23:29N 70°29' E 022°10'0 0.0
2018-Jun-16 23:00N 70°29' E 022°10'0 0.0
2018-Jun-16 22:29N 70°29' E 022°10'0 0.0
2018-Jun-16 22:00N 70°29' E 022°10'0 0.0
2018-Jun-16 21:30N 70°29' E 022°10'0 0.0
2018-Jun-16 21:00N 70°29' E 022°10'0 0.0
2018-Jun-16 20:30N 70°29' E 022°10'0 0.0
2018-Jun-16 20:00N 70°29' E 022°10'0 0.0
2018-Jun-16 19:29N 70°29' E 022°10'4 7.8
2018-Jun-16 19:00N 70°25' E 022°13'611.7
2018-Jun-16 18:30N 70°20' E 022°17'611.6
2018-Jun-16 18:00N 70°14' E 022°21'2 3.6
2018-Jun-16 17:29N 70°14' E 022°16'2 4.9
2018-Jun-16 17:00N 70°16' E 022°20'611.5
2018-Jun-16 16:30N 70°21' E 022°17'611.6
2018-Jun-16 16:00N 70°27' E 022°13'2 4.7
2018-Jun-16 15:30N 70°29' E 022°10'0 0.0
2018-Jun-16 15:00N 70°29' E 022°10'0 0.0
2018-Jun-16 14:30N 70°29' E 022°10'0 0.0
2018-Jun-16 14:00N 70°29' E 022°10'0 0.0
2018-Jun-16 13:29N 70°29' E 022°10'0 0.0
2018-Jun-16 13:00N 70°29' E 022°10'0 0.0
2018-Jun-16 12:30N 70°29' E 022°10'0 0.0
2018-Jun-16 11:59N 70°29' E 022°10'0 0.0
2018-Jun-16 11:30N 70°29' E 022°10'0 0.0
2018-Jun-16 11:00N 70°29' E 022°10'0 0.0
2018-Jun-16 10:30N 70°29' E 022°10'0 0.0
2018-Jun-16 10:00N 70°29' E 022°10'0 0.0
2018-Jun-16 09:30N 70°29' E 022°10'0 0.0
2018-Jun-16 09:00N 70°29' E 022°10'0 0.0
2018-Jun-16 08:30N 70°29' E 022°10'0 0.0
2018-Jun-16 08:00N 70°29' E 022°10'1 2.3
2018-Jun-16 07:30N 70°28' E 022°11'611.4
2018-Jun-16 07:00N 70°22' E 022°15'611.9
2018-Jun-16 06:30N 70°17' E 022°19'3 5.7
2018-Jun-16 05:59N 70°14' E 022°17'2 3.1
2018-Jun-16 05:30N 70°14' E 022°21'4 7.9
2018-Jun-16 05:00N 70°18' E 022°19'611.7
2018-Jun-16 04:30N 70°24' E 022°15'611.4
2018-Jun-16 04:00N 70°29' E 022°10'0 0.1
2018-Jun-16 03:30N 70°29' E 022°10'0 0.0
2018-Jun-16 03:00N 70°29' E 022°10'0 0.0
2018-Jun-16 02:30N 70°29' E 022°10'0 0.0
2018-Jun-16 02:00N 70°29' E 022°10'0 0.0
2018-Jun-16 01:30N 70°29' E 022°10'0 0.0
2018-Jun-16 01:00N 70°29' E 022°10'0 0.0
2018-Jun-16 00:30N 70°29' E 022°10'0 0.0
2018-Jun-15 23:59N 70°29' E 022°10'0 0.0
2018-Jun-15 23:30N 70°29' E 022°10'0 0.0
2018-Jun-15 23:00N 70°29' E 022°10'0 0.0
2018-Jun-15 22:30N 70°29' E 022°10'0 0.0
2018-Jun-15 22:00N 70°29' E 022°10'0 0.0
2018-Jun-15 21:30N 70°29' E 022°10'0 0.0
2018-Jun-15 21:00N 70°29' E 022°10'0 0.0
2018-Jun-15 20:30N 70°29' E 022°10'0 0.0
2018-Jun-15 20:00N 70°29' E 022°10'0 0.0
2018-Jun-15 19:30N 70°29' E 022°10'3 6.6
2018-Jun-15 19:00N 70°26' E 022°13'612.7
2018-Jun-15 18:29N 70°20' E 022°17'611.6
2018-Jun-15 18:00N 70°14' E 022°21'2 3.6
2018-Jun-15 17:30N 70°14' E 022°16'2 3.4
2018-Jun-15 17:00N 70°15' E 022°19'612.0
2018-Jun-15 16:30N 70°21' E 022°16'611.8
2018-Jun-15 16:00N 70°27' E 022°12'1 2.6
2018-Jun-15 15:30N 70°28' E 022°12'612.1
2018-Jun-15 14:58N 70°22' E 022°16'612.5
2018-Jun-15 14:30N 70°16' E 022°19'2 4.2
2018-Jun-15 14:00N 70°14' E 022°21'0 0.0
2018-Jun-15 13:28N 70°14' E 022°21'0 0.1
2018-Jun-15 13:00N 70°14' E 022°21'0 0.0
2018-Jun-15 12:30N 70°14' E 022°21'0 0.1
2018-Jun-15 12:00N 70°14' E 022°21'0 0.0
2018-Jun-15 11:30N 70°14' E 022°21'0 0.0
2018-Jun-15 11:00N 70°14' E 022°21'0 0.0
2018-Jun-15 10:30N 70°14' E 022°21'0 0.0
2018-Jun-15 10:00N 70°14' E 022°21'0 0.0
2018-Jun-15 09:30N 70°14' E 022°21'4 8.2
2018-Jun-15 09:00N 70°18' E 022°18'510.6
2018-Jun-15 08:30N 70°23' E 022°15'611.5
2018-Jun-15 08:00N 70°29' E 022°11'1 1.9
2018-Jun-15 07:30N 70°28' E 022°12'611.5
2018-Jun-15 06:58N 70°22' E 022°16'612.7
2018-Jun-15 06:30N 70°16' E 022°19'2 5.1
2018-Jun-15 06:00N 70°14' E 022°17'2 3.0
2018-Jun-15 05:30N 70°14' E 022°21'5 9.6
2018-Jun-15 05:00N 70°19' E 022°17'510.9
2018-Jun-15 04:30N 70°24' E 022°13'510.6
2018-Jun-15 04:00N 70°29' E 022°10'0 0.0
2018-Jun-15 03:30N 70°29' E 022°10'0 0.0
2018-Jun-15 02:59N 70°29' E 022°10'0 0.0
2018-Jun-15 02:30N 70°29' E 022°10'0 0.0
2018-Jun-15 02:00N 70°29' E 022°10'0 0.0
2018-Jun-15 01:30N 70°29' E 022°10'0 0.0
2018-Jun-15 01:00N 70°29' E 022°10'0 0.0
2018-Jun-15 00:30N 70°29' E 022°10'0 0.0
2018-Jun-15 00:00N 70°29' E 022°10'0 0.0
2018-Jun-14 23:30N 70°29' E 022°10'0 0.0
2018-Jun-14 23:00N 70°29' E 022°10'0 0.0
2018-Jun-14 22:29N 70°29' E 022°10'0 0.0
2018-Jun-14 22:00N 70°29' E 022°10'0 0.0
2018-Jun-14 21:30N 70°29' E 022°10'0 0.0
2018-Jun-14 21:00N 70°29' E 022°10'0 0.0
2018-Jun-14 20:30N 70°29' E 022°10'0 0.0
2018-Jun-14 20:00N 70°29' E 022°10'0 0.0
2018-Jun-14 19:30N 70°29' E 022°10'4 7.6
2018-Jun-14 19:00N 70°25' E 022°13'611.7
2018-Jun-14 18:30N 70°20' E 022°17'611.8
2018-Jun-14 18:00N 70°14' E 022°21'2 3.6
2018-Jun-14 17:30N 70°14' E 022°16'2 3.5
2018-Jun-14 17:00N 70°15' E 022°20'611.4
2018-Jun-14 16:30N 70°21' E 022°16'611.9
2018-Jun-14 16:00N 70°27' E 022°12'2 4.0
2018-Jun-14 15:29N 70°29' E 022°11'611.7
2018-Jun-14 15:00N 70°23' E 022°15'611.7
2018-Jun-14 14:30N 70°17' E 022°19'3 6.9
2018-Jun-14 14:00N 70°14' E 022°21'0 0.0
2018-Jun-14 13:30N 70°14' E 022°21'0 0.1
2018-Jun-14 13:00N 70°14' E 022°21'0 0.1
2018-Jun-14 12:30N 70°14' E 022°21'0 0.0
2018-Jun-14 11:59N 70°14' E 022°21'0 0.0
2018-Jun-14 11:30N 70°14' E 022°21'0 0.0
2018-Jun-14 11:00N 70°14' E 022°21'0 0.0
2018-Jun-14 10:30N 70°14' E 022°21'0 0.0
2018-Jun-14 10:00N 70°14' E 022°21'0 0.0
2018-Jun-14 09:30N 70°14' E 022°21'2 4.5
2018-Jun-14 09:00N 70°16' E 022°19'611.4
2018-Jun-14 08:30N 70°22' E 022°15'612.1
2018-Jun-14 07:59N 70°28' E 022°12'1 1.2
2018-Jun-14 07:29N 70°27' E 022°13'611.6
2018-Jun-14 06:59N 70°22' E 022°16'612.0
2018-Jun-14 06:30N 70°16' E 022°20'3 4.9
2018-Jun-14 05:59N 70°14' E 022°17'2 3.4
2018-Jun-14 05:30N 70°14' E 022°21'4 8.5
2018-Jun-14 05:00N 70°18' E 022°17'611.5
2018-Jun-14 04:30N 70°24' E 022°14'611.0
2018-Jun-14 04:00N 70°29' E 022°10'0 0.0
2018-Jun-14 03:30N 70°29' E 022°10'0 0.0
2018-Jun-14 02:59N 70°29' E 022°10'0 0.0
2018-Jun-14 02:30N 70°29' E 022°10'0 0.0
2018-Jun-14 02:00N 70°29' E 022°10'0 0.0
2018-Jun-14 01:30N 70°29' E 022°10'0 0.0
2018-Jun-14 01:00N 70°29' E 022°10'0 0.0
2018-Jun-14 00:28N 70°29' E 022°10'0 0.0
2018-Jun-14 00:00N 70°29' E 022°10'0 0.0
2018-Jun-13 23:30N 70°29' E 022°10'0 0.0
2018-Jun-13 23:00N 70°29' E 022°10'0 0.0
2018-Jun-13 22:30N 70°29' E 022°10'0 0.0
2018-Jun-13 22:00N 70°29' E 022°10'0 0.0
2018-Jun-13 21:30N 70°29' E 022°10'0 0.0
2018-Jun-13 20:59N 70°29' E 022°10'0 0.0
2018-Jun-13 20:30N 70°29' E 022°10'0 0.0
2018-Jun-13 20:00N 70°29' E 022°10'0 0.0
2018-Jun-13 19:30N 70°29' E 022°10'4 8.1
2018-Jun-13 19:00N 70°25' E 022°13'611.6
2018-Jun-13 18:29N 70°19' E 022°17'511.5
2018-Jun-13 18:00N 70°14' E 022°21'2 3.5
2018-Jun-13 17:30N 70°14' E 022°16'2 3.6
2018-Jun-13 16:59N 70°15' E 022°20'611.8
2018-Jun-13 16:29N 70°21' E 022°16'611.8
2018-Jun-13 16:00N 70°27' E 022°12'1 2.9
2018-Jun-13 15:30N 70°28' E 022°11'612.0
2018-Jun-13 15:00N 70°22' E 022°15'611.8
2018-Jun-13 14:30N 70°16' E 022°19'3 5.8
2018-Jun-13 14:00N 70°14' E 022°16'0 0.3
2018-Jun-13 13:30N 70°14' E 022°16'0 0.0
2018-Jun-13 13:00N 70°14' E 022°16'2 3.6
2018-Jun-13 12:30N 70°14' E 022°21'0 0.1
2018-Jun-13 12:00N 70°14' E 022°21'0 0.0
2018-Jun-13 11:28N 70°14' E 022°21'0 0.0
2018-Jun-13 11:00N 70°14' E 022°21'0 0.0
2018-Jun-13 10:30N 70°14' E 022°21'0 0.0
2018-Jun-13 09:59N 70°14' E 022°21'0 0.0
2018-Jun-13 09:30N 70°14' E 022°21'2 3.4
2018-Jun-13 09:00N 70°16' E 022°20'612.1
2018-Jun-13 08:30N 70°21' E 022°16'612.2
2018-Jun-13 08:00N 70°27' E 022°12'0 0.9
2018-Jun-13 07:30N 70°28' E 022°12'611.7
2018-Jun-13 07:00N 70°22' E 022°15'611.9
2018-Jun-13 06:29N 70°16' E 022°19'2 4.9
2018-Jun-13 06:00N 70°14' E 022°17'1 2.8
2018-Jun-13 05:30N 70°14' E 022°21'4 8.4
2018-Jun-13 05:00N 70°18' E 022°18'611.6
2018-Jun-13 04:29N 70°24' E 022°14'511.0
2018-Jun-13 04:00N 70°29' E 022°10'0 0.0
2018-Jun-13 03:30N 70°29' E 022°10'0 0.0
2018-Jun-13 03:00N 70°29' E 022°10'0 0.0
2018-Jun-13 02:30N 70°29' E 022°10'0 0.0
2018-Jun-13 02:00N 70°29' E 022°10'0 0.0
2018-Jun-13 01:29N 70°29' E 022°10'0 0.0
2018-Jun-13 01:00N 70°29' E 022°10'0 0.0
2018-Jun-13 00:30N 70°29' E 022°10'0 0.0
2018-Jun-13 00:00N 70°29' E 022°10'0 0.0
2018-Jun-12 23:30N 70°29' E 022°10'0 0.0
2018-Jun-12 23:00N 70°29' E 022°10'0 0.0
2018-Jun-12 22:30N 70°29' E 022°10'0 0.0
2018-Jun-12 22:00N 70°29' E 022°10'0 0.0
2018-Jun-12 21:30N 70°29' E 022°10'0 0.0
2018-Jun-12 21:00N 70°29' E 022°10'0 0.0
2018-Jun-12 20:30N 70°29' E 022°10'0 0.0
2018-Jun-12 20:00N 70°29' E 022°10'0 0.0
2018-Jun-12 19:30N 70°29' E 022°10'4 8.0
2018-Jun-12 19:00N 70°25' E 022°13'611.8
2018-Jun-12 18:29N 70°19' E 022°17'611.2
2018-Jun-12 18:00N 70°14' E 022°21'2 3.5
2018-Jun-12 17:29N 70°14' E 022°16'2 3.5
2018-Jun-12 17:00N 70°15' E 022°20'611.8
2018-Jun-12 16:30N 70°21' E 022°16'611.7
2018-Jun-12 16:00N 70°27' E 022°12'2 4.6
2018-Jun-12 15:30N 70°29' E 022°11'611.6
2018-Jun-12 15:00N 70°23' E 022°15'612.0
2018-Jun-12 14:30N 70°17' E 022°18'3 6.2
2018-Jun-12 14:00N 70°14' E 022°20'0 0.8
2018-Jun-12 13:30N 70°14' E 022°21'0 0.0
2018-Jun-12 13:00N 70°14' E 022°21'0 0.0
2018-Jun-12 12:30N 70°14' E 022°21'0 0.0
2018-Jun-12 11:59N 70°14' E 022°21'0 0.0
2018-Jun-12 11:30N 70°14' E 022°21'0 0.0
2018-Jun-12 11:00N 70°14' E 022°21'4 7.2
2018-Jun-12 10:29N 70°17' E 022°18'612.3
2018-Jun-12 10:00N 70°23' E 022°15'611.6
2018-Jun-12 09:30N 70°29' E 022°10'3 6.3
2018-Jun-12 09:00N 70°26' E 022°13'612.0
2018-Jun-12 08:30N 70°20' E 022°17'611.7
2018-Jun-12 07:59N 70°14' E 022°20'2 3.2
2018-Jun-12 07:30N 70°14' E 022°16'2 3.6
2018-Jun-12 07:00N 70°14' E 022°21'4 8.7
2018-Jun-12 06:30N 70°18' E 022°15'611.7
2018-Jun-12 06:00N 70°20' E 021°59'611.3
2018-Jun-12 05:30N 70°16' E 021°47'3 6.9
2018-Jun-12 05:00N 70°13' E 021°43'0 0.0
2018-Jun-12 04:29N 70°13' E 021°43'0 0.0
2018-Jun-12 03:58N 70°13' E 021°43'0 0.0
2018-Jun-12 03:29N 70°13' E 021°43'0 0.0
2018-Jun-12 02:59N 70°13' E 021°43'0 0.0
2018-Jun-12 02:30N 70°13' E 021°43'0 0.0
2018-Jun-12 02:00N 70°13' E 021°43'0 0.0
2018-Jun-12 01:30N 70°13' E 021°43'0 0.0
2018-Jun-12 01:00N 70°13' E 021°43'0 0.0
2018-Jun-12 00:29N 70°13' E 021°43'0 0.0
2018-Jun-12 00:00N 70°13' E 021°43'0 0.0
2018-Jun-11 23:29N 70°13' E 021°43'0 0.0
2018-Jun-11 23:00N 70°13' E 021°43'0 0.0
2018-Jun-11 22:29N 70°13' E 021°43'0 0.0
2018-Jun-11 21:58N 70°13' E 021°43'0 0.0
2018-Jun-11 21:30N 70°13' E 021°43'0 0.0
2018-Jun-11 21:00N 70°13' E 021°43'0 0.0
2018-Jun-11 20:30N 70°13' E 021°43'2 4.6
2018-Jun-11 19:59N 70°15' E 021°47'3 7.1
2018-Jun-11 19:30N 70°18' E 021°51'5 9.5
2018-Jun-11 19:00N 70°20' E 022°05'611.1
2018-Jun-11 18:30N 70°17' E 022°19'2 4.8
2018-Jun-11 18:00N 70°14' E 022°20'611.7
2018-Jun-11 17:30N 70°20' E 022°16'611.5
2018-Jun-11 17:00N 70°26' E 022°13'3 6.7
2018-Jun-11 16:30N 70°29' E 022°10'611.3
2018-Jun-11 16:00N 70°23' E 022°14'612.1
2018-Jun-11 15:30N 70°18' E 022°18'3 6.8
2018-Jun-11 15:00N 70°14' E 022°20'0 0.9
2018-Jun-11 14:28N 70°14' E 022°21'511.0
2018-Jun-11 14:00N 70°19' E 022°17'611.5
2018-Jun-11 13:30N 70°25' E 022°14'4 9.1
2018-Jun-11 13:00N 70°29' E 022°10'0 0.1
2018-Jun-11 12:30N 70°29' E 022°10'0 0.0
2018-Jun-11 12:00N 70°29' E 022°10'0 0.0
2018-Jun-11 11:30N 70°29' E 022°10'0 0.0
2018-Jun-11 11:00N 70°29' E 022°10'0 0.0
2018-Jun-11 10:30N 70°29' E 022°10'0 0.0
2018-Jun-11 10:00N 70°29' E 022°10'0 0.0
2018-Jun-11 09:30N 70°29' E 022°10'3 5.1
2018-Jun-11 09:00N 70°27' E 022°13'611.6
2018-Jun-11 08:30N 70°21' E 022°16'612.1
2018-Jun-11 07:59N 70°15' E 022°20'2 3.8
2018-Jun-11 07:30N 70°14' E 022°16'2 3.6
2018-Jun-11 07:00N 70°14' E 022°21'4 8.3
2018-Jun-11 06:30N 70°18' E 022°15'612.1
2018-Jun-11 06:00N 70°20' E 021°59'611.2
2018-Jun-11 05:29N 70°16' E 021°47'3 7.1
2018-Jun-11 05:00N 70°13' E 021°43'0 0.1
2018-Jun-11 04:29N 70°13' E 021°43'0 0.0
2018-Jun-11 04:00N 70°13' E 021°43'0 0.0
2018-Jun-11 03:30N 70°13' E 021°43'0 0.0
2018-Jun-11 03:00N 70°13' E 021°43'0 0.0
2018-Jun-11 02:30N 70°13' E 021°43'0 0.0
2018-Jun-11 02:00N 70°13' E 021°43'0 0.0
2018-Jun-11 01:29N 70°13' E 021°43'0 0.0
2018-Jun-11 01:00N 70°13' E 021°43'0 0.0
2018-Jun-11 00:29N 70°13' E 021°43'0 0.0
2018-Jun-10 23:57N 70°13' E 021°43'0 0.0
2018-Jun-10 23:30N 70°13' E 021°43'0 0.0
2018-Jun-10 22:58N 70°13' E 021°43'0 0.0
2018-Jun-10 22:29N 70°13' E 021°43'0 0.0
2018-Jun-10 22:00N 70°13' E 021°43'0 0.0
2018-Jun-10 21:29N 70°13' E 021°43'0 0.0
2018-Jun-10 20:59N 70°13' E 021°43'0 0.0
2018-Jun-10 20:30N 70°13' E 021°43'0 0.0
2018-Jun-10 20:00N 70°13' E 021°43'0 0.0
2018-Jun-10 19:30N 70°13' E 021°43'0 0.0
2018-Jun-10 19:00N 70°13' E 021°43'3 5.0
2018-Jun-10 18:29N 70°15' E 021°46'611.4
2018-Jun-10 18:00N 70°20' E 021°56'611.1
2018-Jun-10 17:29N 70°18' E 022°12'510.8
2018-Jun-10 17:00N 70°14' E 022°21'2 3.5
2018-Jun-10 16:29N 70°16' E 022°19'510.5
2018-Jun-10 16:00N 70°19' E 022°08'510.5
2018-Jun-10 15:30N 70°19' E 021°52'4 8.1
2018-Jun-10 15:01N 70°15' E 021°47'2 4.7
2018-Jun-10 14:30N 70°13' E 021°43'0 0.0
2018-Jun-10 13:30N 70°13' E 021°43'3 5.4
2018-Jun-10 13:00N 70°16' E 021°46'611.5
2018-Jun-10 12:30N 70°20' E 021°57'611.1
2018-Jun-10 12:00N 70°18' E 022°13'510.6
2018-Jun-10 11:30N 70°14' E 022°21'4 8.5
2018-Jun-10 11:00N 70°18' E 022°18'611.7
2018-Jun-10 10:30N 70°24' E 022°14'510.8
2018-Jun-10 10:00N 70°29' E 022°10'4 7.3
2018-Jun-10 09:30N 70°26' E 022°13'612.1
2018-Jun-10 09:00N 70°20' E 022°17'611.3
2018-Jun-10 08:30N 70°14' E 022°21'0 0.7
2018-Jun-10 07:58N 70°14' E 022°21'0 0.0
2018-Jun-10 07:30N 70°14' E 022°21'0 0.0
2018-Jun-10 07:00N 70°14' E 022°21'0 0.0
2018-Jun-10 06:30N 70°14' E 022°21'0 0.0
2018-Jun-10 06:00N 70°14' E 022°21'0 0.0
2018-Jun-10 05:29N 70°14' E 022°21'0 0.0
2018-Jun-10 05:00N 70°14' E 022°21'0 0.0
2018-Jun-10 04:30N 70°14' E 022°21'0 0.0
2018-Jun-10 04:00N 70°14' E 022°21'0 0.0
2018-Jun-10 03:30N 70°14' E 022°21'0 0.0
2018-Jun-10 03:00N 70°14' E 022°21'0 0.0
2018-Jun-10 02:30N 70°14' E 022°21'0 0.0
2018-Jun-10 01:59N 70°14' E 022°21'0 0.0
2018-Jun-10 01:30N 70°14' E 022°21'0 0.0
2018-Jun-10 01:00N 70°14' E 022°21'0 0.0
2018-Jun-10 00:30N 70°14' E 022°21'0 0.0
2018-Jun-09 23:59N 70°14' E 022°21'0 0.0
2018-Jun-09 23:30N 70°14' E 022°21'0 0.0
2018-Jun-09 23:00N 70°14' E 022°21'0 0.0
2018-Jun-09 22:30N 70°14' E 022°21'0 0.0
2018-Jun-09 22:00N 70°14' E 022°21'0 0.0
2018-Jun-09 21:30N 70°14' E 022°21'0 0.0
2018-Jun-09 21:00N 70°14' E 022°21'0 0.0
2018-Jun-09 20:30N 70°14' E 022°21'0 0.0
2018-Jun-09 20:00N 70°14' E 022°21'0 0.0
2018-Jun-09 19:30N 70°14' E 022°21'0 0.0
2018-Jun-09 19:00N 70°14' E 022°21'0 0.0
2018-Jun-09 18:30N 70°14' E 022°21'0 0.0
2018-Jun-09 18:00N 70°14' E 022°21'0 0.0
2018-Jun-09 17:31N 70°14' E 022°21'0 0.0
2018-Jun-09 16:59N 70°14' E 022°21'0 0.0
2018-Jun-09 16:30N 70°14' E 022°21'0 0.0
2018-Jun-09 16:00N 70°14' E 022°21'0 0.0
2018-Jun-09 15:00N 70°14' E 022°21'0 0.0
2018-Jun-09 14:30N 70°14' E 022°21'0 0.0
2018-Jun-09 14:00N 70°14' E 022°21'0 0.0
2018-Jun-09 13:30N 70°14' E 022°21'0 0.0
2018-Jun-09 13:00N 70°14' E 022°21'0 0.0
2018-Jun-09 12:30N 70°14' E 022°21'0 0.0
2018-Jun-09 12:00N 70°14' E 022°21'0 0.0
2018-Jun-09 11:29N 70°14' E 022°21'0 0.0
2018-Jun-09 11:00N 70°14' E 022°21'0 0.0
2018-Jun-09 10:30N 70°14' E 022°21'0 0.0
2018-Jun-09 10:00N 70°14' E 022°21'0 0.0
2018-Jun-09 09:30N 70°14' E 022°21'0 0.0
2018-Jun-09 09:00N 70°14' E 022°21'0 0.0
2018-Jun-09 08:30N 70°14' E 022°21'0 0.0
2018-Jun-09 08:00N 70°14' E 022°21'0 0.0
2018-Jun-09 07:30N 70°14' E 022°21'0 0.8
2018-Jun-09 07:00N 70°14' E 022°21'4 8.6
2018-Jun-09 06:29N 70°18' E 022°15'611.5
2018-Jun-09 06:00N 70°20' E 021°60'510.6
2018-Jun-09 05:30N 70°17' E 021°48'4 7.7
2018-Jun-09 05:00N 70°13' E 021°43'0 0.0
2018-Jun-09 04:30N 70°13' E 021°43'0 0.0
2018-Jun-09 03:59N 70°13' E 021°43'0 0.0
2018-Jun-09 03:29N 70°13' E 021°43'0 0.0
2018-Jun-09 03:00N 70°13' E 021°43'0 0.0
2018-Jun-09 02:28N 70°13' E 021°43'0 0.0
2018-Jun-09 02:00N 70°13' E 021°43'0 0.0
2018-Jun-09 01:27N 70°13' E 021°43'0 0.0
2018-Jun-09 00:59N 70°13' E 021°43'0 0.0
2018-Jun-09 00:30N 70°13' E 021°43'0 0.0
2018-Jun-09 00:00N 70°13' E 021°43'0 0.0
2018-Jun-08 23:30N 70°13' E 021°43'0 0.0
2018-Jun-08 23:00N 70°13' E 021°43'0 0.0
2018-Jun-08 22:30N 70°13' E 021°43'0 0.0
2018-Jun-08 21:59N 70°13' E 021°43'0 0.0
2018-Jun-08 21:30N 70°13' E 021°43'0 0.0
2018-Jun-08 21:00N 70°13' E 021°43'0 0.0
2018-Jun-08 20:30N 70°13' E 021°43'2 4.7
2018-Jun-08 20:00N 70°15' E 021°46'3 7.1
2018-Jun-08 19:30N 70°18' E 021°51'5 9.3
2018-Jun-08 19:00N 70°20' E 022°05'610.9
2018-Jun-08 18:29N 70°16' E 022°19'2 5.0
2018-Jun-08 18:00N 70°14' E 022°21'612.0
2018-Jun-08 17:30N 70°20' E 022°16'612.1
2018-Jun-08 17:00N 70°26' E 022°13'3 5.9
2018-Jun-08 16:30N 70°29' E 022°11'612.0
2018-Jun-08 16:00N 70°23' E 022°15'611.4
2018-Jun-08 15:29N 70°17' E 022°18'3 6.4
2018-Jun-08 15:00N 70°14' E 022°19'1 1.6
2018-Jun-08 14:31N 70°14' E 022°21'4 7.9
2018-Jun-08 14:00N 70°18' E 022°18'612.0
2018-Jun-08 13:30N 70°24' E 022°14'610.9
2018-Jun-08 13:00N 70°29' E 022°10'0 0.0
2018-Jun-08 12:30N 70°29' E 022°10'0 0.0
2018-Jun-08 12:00N 70°29' E 022°10'0 0.0
2018-Jun-08 11:30N 70°29' E 022°10'0 0.0
2018-Jun-08 11:00N 70°29' E 022°10'0 0.0
2018-Jun-08 10:30N 70°29' E 022°10'0 0.0
2018-Jun-08 10:00N 70°29' E 022°10'0 0.0
2018-Jun-08 09:30N 70°29' E 022°10'  
Track history (hours):
 
Tides and Currents Weather Stations Pressure Air Temp Water Temp Dewpoint Dewpoint Depression Visibility Wind Speed Wind Dir Waves Ship Positions

Hasvik

Last reported at 2018-Jun-18 09:00 UTC. Time now 2018-Jun-18 09:31 UTC.
Position N 70°16' E 022°19'.

Length 62 m; draft 3.5 m.

Type: Passenger vessel. MMSI: 258287000.

Date/timePositionNaut miles runAvg speedWind from/ knotsBaromVisibWave heightAir tempDewpointWater temp
2018-Jun-18 09:00N 70°16' E 022°19'611.5
2018-Jun-18 08:30N 70°21' E 022°15'612.3
2018-Jun-18 08:00N 70°28' E 022°11'0 0.3
2018-Jun-18 07:30N 70°28' E 022°12'611.8
2018-Jun-18 07:00N 70°22' E 022°16'611.6
2018-Jun-18 06:30N 70°16' E 022°19'2 4.8
2018-Jun-18 05:59N 70°14' E 022°17'1 2.9
2018-Jun-18 05:30N 70°14' E 022°21'4 8.1
2018-Jun-18 04:59N 70°18' E 022°18'611.6
2018-Jun-18 04:30N 70°23' E 022°14'611.4
2018-Jun-18 04:00N 70°29' E 022°10'0 0.1
2018-Jun-18 03:29N 70°29' E 022°10'0 0.0
2018-Jun-18 03:00N 70°29' E 022°10'0 0.0
2018-Jun-18 02:30N 70°29' E 022°10'0 0.0
2018-Jun-18 01:59N 70°29' E 022°10'0 0.0
2018-Jun-18 01:30N 70°29' E 022°10'0 0.0
2018-Jun-18 01:00N 70°29' E 022°10'0 0.0
2018-Jun-18 00:30N 70°29' E 022°10'0 0.0
2018-Jun-18 00:00N 70°29' E 022°10'0 0.0
2018-Jun-17 23:30N 70°29' E 022°10'0 0.0
2018-Jun-17 23:00N 70°29' E 022°10'0 0.0
2018-Jun-17 22:29N 70°29' E 022°10'0 0.0
2018-Jun-17 22:00N 70°29' E 022°10'0 0.0
2018-Jun-17 21:30N 70°29' E 022°10'0 0.0
2018-Jun-17 21:00N 70°29' E 022°10'0 0.0
2018-Jun-17 20:30N 70°29' E 022°10'0 0.0
2018-Jun-17 20:00N 70°29' E 022°10'0 0.0
2018-Jun-17 19:30N 70°29' E 022°10'4 7.4
2018-Jun-17 19:00N 70°26' E 022°13'612.3
2018-Jun-17 18:30N 70°19' E 022°17'611.4
2018-Jun-17 18:00N 70°14' E 022°21'2 3.5
2018-Jun-17 17:29N 70°14' E 022°16'2 3.4
2018-Jun-17 17:00N 70°15' E 022°20'612.0
2018-Jun-17 16:30N 70°21' E 022°16'611.7
2018-Jun-17 16:00N 70°26' E 022°12'2 4.9
2018-Jun-17 15:30N 70°29' E 022°10'611.5
2018-Jun-17 15:00N 70°23' E 022°15'611.6
2018-Jun-17 14:30N 70°18' E 022°18'4 7.0
2018-Jun-17 13:59N 70°14' E 022°21'0 0.5
2018-Jun-17 13:30N 70°14' E 022°21'0 0.7
2018-Jun-17 12:59N 70°14' E 022°21'0 0.0
2018-Jun-17 12:30N 70°14' E 022°21'0 0.0
2018-Jun-17 12:00N 70°14' E 022°21'0 0.0
2018-Jun-17 11:30N 70°14' E 022°21'0 0.0
2018-Jun-17 10:59N 70°14' E 022°21'0 0.0
2018-Jun-17 10:30N 70°14' E 022°21'0 0.0
2018-Jun-17 10:00N 70°14' E 022°21'0 0.0
2018-Jun-17 09:30N 70°14' E 022°21'2 3.9
2018-Jun-17 08:59N 70°16' E 022°19'611.7
2018-Jun-17 08:30N 70°22' E 022°16'611.6
2018-Jun-17 08:00N 70°27' E 022°12'2 3.2
2018-Jun-17 07:29N 70°29' E 022°10'0 0.0
2018-Jun-17 07:00N 70°29' E 022°10'0 0.0
2018-Jun-17 06:30N 70°29' E 022°10'0 0.0
2018-Jun-17 05:59N 70°29' E 022°10'0 0.0
2018-Jun-17 05:30N 70°29' E 022°10'0 0.0
2018-Jun-17 05:00N 70°29' E 022°10'0 0.0
2018-Jun-17 04:29N 70°29' E 022°10'0 0.0
2018-Jun-17 04:00N 70°29' E 022°10'0 0.0
2018-Jun-17 03:30N 70°29' E 022°10'0 0.0
2018-Jun-17 03:00N 70°29' E 022°10'0 0.0
2018-Jun-17 02:30N 70°29' E 022°10'0 0.0
2018-Jun-17 02:00N 70°29' E 022°10'0 0.0
2018-Jun-17 01:29N 70°29' E 022°10'0 0.0
2018-Jun-17 01:00N 70°29' E 022°10'0 0.0
2018-Jun-17 00:30N 70°29' E 022°10'0 0.0
2018-Jun-17 00:00N 70°29' E 022°10'0 0.0
2018-Jun-16 23:29N 70°29' E 022°10'0 0.0
2018-Jun-16 23:00N 70°29' E 022°10'0 0.0
2018-Jun-16 22:29N 70°29' E 022°10'0 0.0
2018-Jun-16 22:00N 70°29' E 022°10'0 0.0
2018-Jun-16 21:30N 70°29' E 022°10'0 0.0
2018-Jun-16 21:00N 70°29' E 022°10'0 0.0
2018-Jun-16 20:30N 70°29' E 022°10'0 0.0
2018-Jun-16 20:00N 70°29' E 022°10'0 0.0
2018-Jun-16 19:29N 70°29' E 022°10'4 7.8
2018-Jun-16 19:00N 70°25' E 022°13'611.7
2018-Jun-16 18:30N 70°20' E 022°17'611.6
2018-Jun-16 18:00N 70°14' E 022°21'2 3.6
2018-Jun-16 17:29N 70°14' E 022°16'2 4.9
2018-Jun-16 17:00N 70°16' E 022°20'611.5
2018-Jun-16 16:30N 70°21' E 022°17'611.6
2018-Jun-16 16:00N 70°27' E 022°13'2 4.7
2018-Jun-16 15:30N 70°29' E 022°10'0 0.0
2018-Jun-16 15:00N 70°29' E 022°10'0 0.0
2018-Jun-16 14:30N 70°29' E 022°10'0 0.0
2018-Jun-16 14:00N 70°29' E 022°10'0 0.0
2018-Jun-16 13:29N 70°29' E 022°10'0 0.0
2018-Jun-16 13:00N 70°29' E 022°10'0 0.0
2018-Jun-16 12:30N 70°29' E 022°10'0 0.0
2018-Jun-16 11:59N 70°29' E 022°10'0 0.0
2018-Jun-16 11:30N 70°29' E 022°10'0 0.0
2018-Jun-16 11:00N 70°29' E 022°10'0 0.0
2018-Jun-16 10:30N 70°29' E 022°10'0 0.0
2018-Jun-16 10:00N 70°29' E 022°10'0 0.0
2018-Jun-16 09:30N 70°29' E 022°10'0 0.0
2018-Jun-16 09:00N 70°29' E 022°10'0 0.0
2018-Jun-16 08:30N 70°29' E 022°10'0 0.0
2018-Jun-16 08:00N 70°29' E 022°10'1 2.3
2018-Jun-16 07:30N 70°28' E 022°11'611.4
2018-Jun-16 07:00N 70°22' E 022°15'611.9
2018-Jun-16 06:30N 70°17' E 022°19'3 5.7
2018-Jun-16 05:59N 70°14' E 022°17'2 3.1
2018-Jun-16 05:30N 70°14' E 022°21'4 7.9
2018-Jun-16 05:00N 70°18' E 022°19'611.7
2018-Jun-16 04:30N 70°24' E 022°15'611.4
2018-Jun-16 04:00N 70°29' E 022°10'0 0.1
2018-Jun-16 03:30N 70°29' E 022°10'0 0.0
2018-Jun-16 03:00N 70°29' E 022°10'0 0.0
2018-Jun-16 02:30N 70°29' E 022°10'0 0.0
2018-Jun-16 02:00N 70°29' E 022°10'0 0.0
2018-Jun-16 01:30N 70°29' E 022°10'0 0.0
2018-Jun-16 01:00N 70°29' E 022°10'0 0.0
2018-Jun-16 00:30N 70°29' E 022°10'0 0.0
2018-Jun-15 23:59N 70°29' E 022°10'0 0.0
2018-Jun-15 23:30N 70°29' E 022°10'0 0.0
2018-Jun-15 23:00N 70°29' E 022°10'0 0.0
2018-Jun-15 22:30N 70°29' E 022°10'0 0.0
2018-Jun-15 22:00N 70°29' E 022°10'0 0.0
2018-Jun-15 21:30N 70°29' E 022°10'0 0.0
2018-Jun-15 21:00N 70°29' E 022°10'0 0.0
2018-Jun-15 20:30N 70°29' E 022°10'0 0.0
2018-Jun-15 20:00N 70°29' E 022°10'0 0.0
2018-Jun-15 19:30N 70°29' E 022°10'3 6.6
2018-Jun-15 19:00N 70°26' E 022°13'612.7
2018-Jun-15 18:29N 70°20' E 022°17'611.6
2018-Jun-15 18:00N 70°14' E 022°21'2 3.6
2018-Jun-15 17:30N 70°14' E 022°16'2 3.4
2018-Jun-15 17:00N 70°15' E 022°19'612.0
2018-Jun-15 16:30N 70°21' E 022°16'611.8
2018-Jun-15 16:00N 70°27' E 022°12'1 2.6
2018-Jun-15 15:30N 70°28' E 022°12'612.1
2018-Jun-15 14:58N 70°22' E 022°16'612.5
2018-Jun-15 14:30N 70°16' E 022°19'2 4.2
2018-Jun-15 14:00N 70°14' E 022°21'0 0.0
2018-Jun-15 13:28N 70°14' E 022°21'0 0.1
2018-Jun-15 13:00N 70°14' E 022°21'0 0.0
2018-Jun-15 12:30N 70°14' E 022°21'0 0.1
2018-Jun-15 12:00N 70°14' E 022°21'0 0.0
2018-Jun-15 11:30N 70°14' E 022°21'0 0.0
2018-Jun-15 11:00N 70°14' E 022°21'0 0.0
2018-Jun-15 10:30N 70°14' E 022°21'0 0.0
2018-Jun-15 10:00N 70°14' E 022°21'0 0.0
2018-Jun-15 09:30N 70°14' E 022°21'4 8.2
2018-Jun-15 09:00N 70°18' E 022°18'510.6
2018-Jun-15 08:30N 70°23' E 022°15'611.5
2018-Jun-15 08:00N 70°29' E 022°11'1 1.9
2018-Jun-15 07:30N 70°28' E 022°12'611.5
2018-Jun-15 06:58N 70°22' E 022°16'612.7
2018-Jun-15 06:30N 70°16' E 022°19'2 5.1
2018-Jun-15 06:00N 70°14' E 022°17'2 3.0
2018-Jun-15 05:30N 70°14' E 022°21'5 9.6
2018-Jun-15 05:00N 70°19' E 022°17'510.9
2018-Jun-15 04:30N 70°24' E 022°13'510.6
2018-Jun-15 04:00N 70°29' E 022°10'0 0.0
2018-Jun-15 03:30N 70°29' E 022°10'0 0.0
2018-Jun-15 02:59N 70°29' E 022°10'0 0.0
2018-Jun-15 02:30N 70°29' E 022°10'0 0.0
2018-Jun-15 02:00N 70°29' E 022°10'0 0.0
2018-Jun-15 01:30N 70°29' E 022°10'0 0.0
2018-Jun-15 01:00N 70°29' E 022°10'0 0.0
2018-Jun-15 00:30N 70°29' E 022°10'0 0.0
2018-Jun-15 00:00N 70°29' E 022°10'0 0.0
2018-Jun-14 23:30N 70°29' E 022°10'0 0.0
2018-Jun-14 23:00N 70°29' E 022°10'0 0.0
2018-Jun-14 22:29N 70°29' E 022°10'0 0.0
2018-Jun-14 22:00N 70°29' E 022°10'0 0.0
2018-Jun-14 21:30N 70°29' E 022°10'0 0.0
2018-Jun-14 21:00N 70°29' E 022°10'0 0.0
2018-Jun-14 20:30N 70°29' E 022°10'0 0.0
2018-Jun-14 20:00N 70°29' E 022°10'0 0.0
2018-Jun-14 19:30N 70°29' E 022°10'4 7.6
2018-Jun-14 19:00N 70°25' E 022°13'611.7
2018-Jun-14 18:30N 70°20' E 022°17'611.8
2018-Jun-14 18:00N 70°14' E 022°21'2 3.6
2018-Jun-14 17:30N 70°14' E 022°16'2 3.5
2018-Jun-14 17:00N 70°15' E 022°20'611.4
2018-Jun-14 16:30N 70°21' E 022°16'611.9
2018-Jun-14 16:00N 70°27' E 022°12'2 4.0
2018-Jun-14 15:29N 70°29' E 022°11'611.7
2018-Jun-14 15:00N 70°23' E 022°15'611.7
2018-Jun-14 14:30N 70°17' E 022°19'3 6.9
2018-Jun-14 14:00N 70°14' E 022°21'0 0.0
2018-Jun-14 13:30N 70°14' E 022°21'0 0.1
2018-Jun-14 13:00N 70°14' E 022°21'0 0.1
2018-Jun-14 12:30N 70°14' E 022°21'0 0.0
2018-Jun-14 11:59N 70°14' E 022°21'0 0.0
2018-Jun-14 11:30N 70°14' E 022°21'0 0.0
2018-Jun-14 11:00N 70°14' E 022°21'0 0.0
2018-Jun-14 10:30N 70°14' E 022°21'0 0.0
2018-Jun-14 10:00N 70°14' E 022°21'0 0.0
2018-Jun-14 09:30N 70°14' E 022°21'2 4.5
2018-Jun-14 09:00N 70°16' E 022°19'611.4
2018-Jun-14 08:30N 70°22' E 022°15'612.1
2018-Jun-14 07:59N 70°28' E 022°12'1 1.2
2018-Jun-14 07:29N 70°27' E 022°13'611.6
2018-Jun-14 06:59N 70°22' E 022°16'612.0
2018-Jun-14 06:30N 70°16' E 022°20'3 4.9
2018-Jun-14 05:59N 70°14' E 022°17'2 3.4
2018-Jun-14 05:30N 70°14' E 022°21'4 8.5
2018-Jun-14 05:00N 70°18' E 022°17'611.5
2018-Jun-14 04:30N 70°24' E 022°14'611.0
2018-Jun-14 04:00N 70°29' E 022°10'0 0.0
2018-Jun-14 03:30N 70°29' E 022°10'0 0.0
2018-Jun-14 02:59N 70°29' E 022°10'0 0.0
2018-Jun-14 02:30N 70°29' E 022°10'0 0.0
2018-Jun-14 02:00N 70°29' E 022°10'0 0.0
2018-Jun-14 01:30N 70°29' E 022°10'0 0.0
2018-Jun-14 01:00N 70°29' E 022°10'0 0.0
2018-Jun-14 00:28N 70°29' E 022°10'0 0.0
2018-Jun-14 00:00N 70°29' E 022°10'0 0.0
2018-Jun-13 23:30N 70°29' E 022°10'0 0.0
2018-Jun-13 23:00N 70°29' E 022°10'0 0.0
2018-Jun-13 22:30N 70°29' E 022°10'0 0.0
2018-Jun-13 22:00N 70°29' E 022°10'0 0.0
2018-Jun-13 21:30N 70°29' E 022°10'0 0.0
2018-Jun-13 20:59N 70°29' E 022°10'0 0.0
2018-Jun-13 20:30N 70°29' E 022°10'0 0.0
2018-Jun-13 20:00N 70°29' E 022°10'0 0.0
2018-Jun-13 19:30N 70°29' E 022°10'4 8.1
2018-Jun-13 19:00N 70°25' E 022°13'611.6
2018-Jun-13 18:29N 70°19' E 022°17'511.5
2018-Jun-13 18:00N 70°14' E 022°21'2 3.5
2018-Jun-13 17:30N 70°14' E 022°16'2 3.6
2018-Jun-13 16:59N 70°15' E 022°20'611.8
2018-Jun-13 16:29N 70°21' E 022°16'611.8
2018-Jun-13 16:00N 70°27' E 022°12'1 2.9
2018-Jun-13 15:30N 70°28' E 022°11'612.0
2018-Jun-13 15:00N 70°22' E 022°15'611.8
2018-Jun-13 14:30N 70°16' E 022°19'3 5.8
2018-Jun-13 14:00N 70°14' E 022°16'0 0.3
2018-Jun-13 13:30N 70°14' E 022°16'0 0.0
2018-Jun-13 13:00N 70°14' E 022°16'2 3.6
2018-Jun-13 12:30N 70°14' E 022°21'0 0.1
2018-Jun-13 12:00N 70°14' E 022°21'0 0.0
2018-Jun-13 11:28N 70°14' E 022°21'0 0.0
2018-Jun-13 11:00N 70°14' E 022°21'0 0.0
2018-Jun-13 10:30N 70°14' E 022°21'0 0.0
2018-Jun-13 09:59N 70°14' E 022°21'0 0.0
2018-Jun-13 09:30N 70°14' E 022°21'2 3.4
2018-Jun-13 09:00N 70°16' E 022°20'612.1
2018-Jun-13 08:30N 70°21' E 022°16'612.2
2018-Jun-13 08:00N 70°27' E 022°12'0 0.9
2018-Jun-13 07:30N 70°28' E 022°12'611.7
2018-Jun-13 07:00N 70°22' E 022°15'611.9
2018-Jun-13 06:29N 70°16' E 022°19'2 4.9
2018-Jun-13 06:00N 70°14' E 022°17'1 2.8
2018-Jun-13 05:30N 70°14' E 022°21'4 8.4
2018-Jun-13 05:00N 70°18' E 022°18'611.6
2018-Jun-13 04:29N 70°24' E 022°14'511.0
2018-Jun-13 04:00N 70°29' E 022°10'0 0.0
2018-Jun-13 03:30N 70°29' E 022°10'0 0.0
2018-Jun-13 03:00N 70°29' E 022°10'0 0.0
2018-Jun-13 02:30N 70°29' E 022°10'0 0.0
2018-Jun-13 02:00N 70°29' E 022°10'0 0.0
2018-Jun-13 01:29N 70°29' E 022°10'0 0.0
2018-Jun-13 01:00N 70°29' E 022°10'0 0.0
2018-Jun-13 00:30N 70°29' E 022°10'0 0.0
2018-Jun-13 00:00N 70°29' E 022°10'0 0.0
2018-Jun-12 23:30N 70°29' E 022°10'0 0.0
2018-Jun-12 23:00N 70°29' E 022°10'0 0.0
2018-Jun-12 22:30N 70°29' E 022°10'0 0.0
2018-Jun-12 22:00N 70°29' E 022°10'0 0.0
2018-Jun-12 21:30N 70°29' E 022°10'0 0.0
2018-Jun-12 21:00N 70°29' E 022°10'0 0.0
2018-Jun-12 20:30N 70°29' E 022°10'0 0.0
2018-Jun-12 20:00N 70°29' E 022°10'0 0.0
2018-Jun-12 19:30N 70°29' E 022°10'4 8.0
2018-Jun-12 19:00N 70°25' E 022°13'611.8
2018-Jun-12 18:29N 70°19' E 022°17'611.2
2018-Jun-12 18:00N 70°14' E 022°21'2 3.5
2018-Jun-12 17:29N 70°14' E 022°16'2 3.5
2018-Jun-12 17:00N 70°15' E 022°20'611.8
2018-Jun-12 16:30N 70°21' E 022°16'611.7
2018-Jun-12 16:00N 70°27' E 022°12'2 4.6
2018-Jun-12 15:30N 70°29' E 022°11'611.6
2018-Jun-12 15:00N 70°23' E 022°15'612.0
2018-Jun-12 14:30N 70°17' E 022°18'3 6.2
2018-Jun-12 14:00N 70°14' E 022°20'0 0.8
2018-Jun-12 13:30N 70°14' E 022°21'0 0.0
2018-Jun-12 13:00N 70°14' E 022°21'0 0.0
2018-Jun-12 12:30N 70°14' E 022°21'0 0.0
2018-Jun-12 11:59N 70°14' E 022°21'0 0.0
2018-Jun-12 11:30N 70°14' E 022°21'0 0.0
2018-Jun-12 11:00N 70°14' E 022°21'4 7.2
2018-Jun-12 10:29N 70°17' E 022°18'612.3
2018-Jun-12 10:00N 70°23' E 022°15'611.6
2018-Jun-12 09:30N 70°29' E 022°10'3 6.3
2018-Jun-12 09:00N 70°26' E 022°13'612.0
2018-Jun-12 08:30N 70°20' E 022°17'611.7
2018-Jun-12 07:59N 70°14' E 022°20'2 3.2
2018-Jun-12 07:30N 70°14' E 022°16'2 3.6
2018-Jun-12 07:00N 70°14' E 022°21'4 8.7
2018-Jun-12 06:30N 70°18' E 022°15'611.7
2018-Jun-12 06:00N 70°20' E 021°59'611.3
2018-Jun-12 05:30N 70°16' E 021°47'3 6.9
2018-Jun-12 05:00N 70°13' E 021°43'0 0.0
2018-Jun-12 04:29N 70°13' E 021°43'0 0.0
2018-Jun-12 03:58N 70°13' E 021°43'0 0.0
2018-Jun-12 03:29N 70°13' E 021°43'0 0.0
2018-Jun-12 02:59N 70°13' E 021°43'0 0.0
2018-Jun-12 02:30N 70°13' E 021°43'0 0.0
2018-Jun-12 02:00N 70°13' E 021°43'0 0.0
2018-Jun-12 01:30N 70°13' E 021°43'0 0.0
2018-Jun-12 01:00N 70°13' E 021°43'0 0.0
2018-Jun-12 00:29N 70°13' E 021°43'0 0.0
2018-Jun-12 00:00N 70°13' E 021°43'0 0.0
2018-Jun-11 23:29N 70°13' E 021°43'0 0.0
2018-Jun-11 23:00N 70°13' E 021°43'0 0.0
2018-Jun-11 22:29N 70°13' E 021°43'0 0.0
2018-Jun-11 21:58N 70°13' E 021°43'0 0.0
2018-Jun-11 21:30N 70°13' E 021°43'0 0.0
2018-Jun-11 21:00N 70°13' E 021°43'0 0.0
2018-Jun-11 20:30N 70°13' E 021°43'2 4.6
2018-Jun-11 19:59N 70°15' E 021°47'3 7.1
2018-Jun-11 19:30N 70°18' E 021°51'5 9.5
2018-Jun-11 19:00N 70°20' E 022°05'611.1
2018-Jun-11 18:30N 70°17' E 022°19'2 4.8
2018-Jun-11 18:00N 70°14' E 022°20'611.7
2018-Jun-11 17:30N 70°20' E 022°16'611.5
2018-Jun-11 17:00N 70°26' E 022°13'3 6.7
2018-Jun-11 16:30N 70°29' E 022°10'611.3
2018-Jun-11 16:00N 70°23' E 022°14'612.1
2018-Jun-11 15:30N 70°18' E 022°18'3 6.8
2018-Jun-11 15:00N 70°14' E 022°20'0 0.9
2018-Jun-11 14:28N 70°14' E 022°21'511.0
2018-Jun-11 14:00N 70°19' E 022°17'611.5
2018-Jun-11 13:30N 70°25' E 022°14'4 9.1
2018-Jun-11 13:00N 70°29' E 022°10'0 0.1
2018-Jun-11 12:30N 70°29' E 022°10'0 0.0
2018-Jun-11 12:00N 70°29' E 022°10'0 0.0
2018-Jun-11 11:30N 70°29' E 022°10'0 0.0
2018-Jun-11 11:00N 70°29' E 022°10'0 0.0
2018-Jun-11 10:30N 70°29' E 022°10'0 0.0
2018-Jun-11 10:00N 70°29' E 022°10'0 0.0
2018-Jun-11 09:30N 70°29' E 022°10'3 5.1
2018-Jun-11 09:00N 70°27' E 022°13'611.6
2018-Jun-11 08:30N 70°21' E 022°16'612.1
2018-Jun-11 07:59N 70°15' E 022°20'2 3.8
2018-Jun-11 07:30N 70°14' E 022°16'2 3.6
2018-Jun-11 07:00N 70°14' E 022°21'4 8.3
2018-Jun-11 06:30N 70°18' E 022°15'612.1
2018-Jun-11 06:00N 70°20' E 021°59'611.2
2018-Jun-11 05:29N 70°16' E 021°47'3 7.1
2018-Jun-11 05:00N 70°13' E 021°43'0 0.1
2018-Jun-11 04:29N 70°13' E 021°43'0 0.0
2018-Jun-11 04:00N 70°13' E 021°43'0 0.0
2018-Jun-11 03:30N 70°13' E 021°43'0 0.0
2018-Jun-11 03:00N 70°13' E 021°43'0 0.0
2018-Jun-11 02:30N 70°13' E 021°43'0 0.0
2018-Jun-11 02:00N 70°13' E 021°43'0 0.0
2018-Jun-11 01:29N 70°13' E 021°43'0 0.0
2018-Jun-11 01:00N 70°13' E 021°43'0 0.0
2018-Jun-11 00:29N 70°13' E 021°43'0 0.0
2018-Jun-10 23:57N 70°13' E 021°43'0 0.0
2018-Jun-10 23:30N 70°13' E 021°43'0 0.0
2018-Jun-10 22:58N 70°13' E 021°43'0 0.0
2018-Jun-10 22:29N 70°13' E 021°43'0 0.0
2018-Jun-10 22:00N 70°13' E 021°43'0 0.0
2018-Jun-10 21:29N 70°13' E 021°43'0 0.0
2018-Jun-10 20:59N 70°13' E 021°43'0 0.0
2018-Jun-10 20:30N 70°13' E 021°43'0 0.0
2018-Jun-10 20:00N 70°13' E 021°43'0 0.0
2018-Jun-10 19:30N 70°13' E 021°43'0 0.0
2018-Jun-10 19:00N 70°13' E 021°43'3 5.0
2018-Jun-10 18:29N 70°15' E 021°46'611.4
2018-Jun-10 18:00N 70°20' E 021°56'611.1
2018-Jun-10 17:29N 70°18' E 022°12'510.8
2018-Jun-10 17:00N 70°14' E 022°21'2 3.5
2018-Jun-10 16:29N 70°16' E 022°19'510.5
2018-Jun-10 16:00N 70°19' E 022°08'510.5
2018-Jun-10 15:30N 70°19' E 021°52'4 8.1
2018-Jun-10 15:01N 70°15' E 021°47'2 4.7
2018-Jun-10 14:30N 70°13' E 021°43'0 0.0
2018-Jun-10 13:30N 70°13' E 021°43'3 5.4
2018-Jun-10 13:00N 70°16' E 021°46'611.5
2018-Jun-10 12:30N 70°20' E 021°57'611.1
2018-Jun-10 12:00N 70°18' E 022°13'510.6
2018-Jun-10 11:30N 70°14' E 022°21'4 8.5
2018-Jun-10 11:00N 70°18' E 022°18'611.7
2018-Jun-10 10:30N 70°24' E 022°14'510.8
2018-Jun-10 10:00N 70°29' E 022°10'4 7.3
2018-Jun-10 09:30N 70°26' E 022°13'612.1
2018-Jun-10 09:00N 70°20' E 022°17'611.3
2018-Jun-10 08:30N 70°14' E 022°21'0 0.7
2018-Jun-10 07:58N 70°14' E 022°21'0 0.0
2018-Jun-10 07:30N 70°14' E 022°21'0 0.0
2018-Jun-10 07:00N 70°14' E 022°21'0 0.0
2018-Jun-10 06:30N 70°14' E 022°21'0 0.0
2018-Jun-10 06:00N 70°14' E 022°21'0 0.0
2018-Jun-10 05:29N 70°14' E 022°21'0 0.0
2018-Jun-10 05:00N 70°14' E 022°21'0 0.0
2018-Jun-10 04:30N 70°14' E 022°21'0 0.0
2018-Jun-10 04:00N 70°14' E 022°21'0 0.0
2018-Jun-10 03:30N 70°14' E 022°21'0 0.0
2018-Jun-10 03:00N 70°14' E 022°21'0 0.0
2018-Jun-10 02:30N 70°14' E 022°21'0 0.0
2018-Jun-10 01:59N 70°14' E 022°21'0 0.0
2018-Jun-10 01:30N 70°14' E 022°21'0 0.0
2018-Jun-10 01:00N 70°14' E 022°21'0 0.0
2018-Jun-10 00:30N 70°14' E 022°21'0 0.0
2018-Jun-09 23:59N 70°14' E 022°21'0 0.0
2018-Jun-09 23:30N 70°14' E 022°21'0 0.0
2018-Jun-09 23:00N 70°14' E 022°21'0 0.0
2018-Jun-09 22:30N 70°14' E 022°21'0 0.0
2018-Jun-09 22:00N 70°14' E 022°21'0 0.0
2018-Jun-09 21:30N 70°14' E 022°21'0 0.0
2018-Jun-09 21:00N 70°14' E 022°21'0 0.0
2018-Jun-09 20:30N 70°14' E 022°21'0 0.0
2018-Jun-09 20:00N 70°14' E 022°21'0 0.0
2018-Jun-09 19:30N 70°14' E 022°21'0 0.0
2018-Jun-09 19:00N 70°14' E 022°21'0 0.0
2018-Jun-09 18:30N 70°14' E 022°21'0 0.0
2018-Jun-09 18:00N 70°14' E 022°21'0 0.0
2018-Jun-09 17:31N 70°14' E 022°21'0 0.0
2018-Jun-09 16:59N 70°14' E 022°21'0 0.0
2018-Jun-09 16:30N 70°14' E 022°21'0 0.0
2018-Jun-09 16:00N 70°14' E 022°21'0 0.0
2018-Jun-09 15:00N 70°14' E 022°21'0 0.0
2018-Jun-09 14:30N 70°14' E 022°21'0 0.0
2018-Jun-09 14:00N 70°14' E 022°21'0 0.0
2018-Jun-09 13:30N 70°14' E 022°21'0 0.0
2018-Jun-09 13:00N 70°14' E 022°21'0 0.0
2018-Jun-09 12:30N 70°14' E 022°21'0 0.0
2018-Jun-09 12:00N 70°14' E 022°21'0 0.0
2018-Jun-09 11:29N 70°14' E 022°21'0 0.0
2018-Jun-09 11:00N 70°14' E 022°21'0 0.0
2018-Jun-09 10:30N 70°14' E 022°21'0 0.0
2018-Jun-09 10:00N 70°14' E 022°21'0 0.0
2018-Jun-09 09:30N 70°14' E 022°21'0 0.0
2018-Jun-09 09:00N 70°14' E 022°21'0 0.0
2018-Jun-09 08:30N 70°14' E 022°21'0 0.0
2018-Jun-09 08:00N 70°14' E 022°21'0 0.0
2018-Jun-09 07:30N 70°14' E 022°21'0 0.8
2018-Jun-09 07:00N 70°14' E 022°21'4 8.6
2018-Jun-09 06:29N 70°18' E 022°15'611.5
2018-Jun-09 06:00N 70°20' E 021°60'510.6
2018-Jun-09 05:30N 70°17' E 021°48'4 7.7
2018-Jun-09 05:00N 70°13' E 021°43'0 0.0
2018-Jun-09 04:30N 70°13' E 021°43'0 0.0
2018-Jun-09 03:59N 70°13' E 021°43'0 0.0
2018-Jun-09 03:29N 70°13' E 021°43'0 0.0
2018-Jun-09 03:00N 70°13' E 021°43'0 0.0
2018-Jun-09 02:28N 70°13' E 021°43'0 0.0
2018-Jun-09 02:00N 70°13' E 021°43'0 0.0
2018-Jun-09 01:27N 70°13' E 021°43'0 0.0
2018-Jun-09 00:59N 70°13' E 021°43'0 0.0
2018-Jun-09 00:30N 70°13' E 021°43'0 0.0
2018-Jun-09 00:00N 70°13' E 021°43'0 0.0
2018-Jun-08 23:30N 70°13' E 021°43'0 0.0
2018-Jun-08 23:00N 70°13' E 021°43'0 0.0
2018-Jun-08 22:30N 70°13' E 021°43'0 0.0
2018-Jun-08 21:59N 70°13' E 021°43'0 0.0
2018-Jun-08 21:30N 70°13' E 021°43'0 0.0
2018-Jun-08 21:00N 70°13' E 021°43'0 0.0
2018-Jun-08 20:30N 70°13' E 021°43'2 4.7
2018-Jun-08 20:00N 70°15' E 021°46'3 7.1
2018-Jun-08 19:30N 70°18' E 021°51'5 9.3
2018-Jun-08 19:00N 70°20' E 022°05'610.9
2018-Jun-08 18:29N 70°16' E 022°19'2 5.0
2018-Jun-08 18:00N 70°14' E 022°21'612.0
2018-Jun-08 17:30N 70°20' E 022°16'612.1
2018-Jun-08 17:00N 70°26' E 022°13'3 5.9
2018-Jun-08 16:30N 70°29' E 022°11'612.0
2018-Jun-08 16:00N 70°23' E 022°15'611.4
2018-Jun-08 15:29N 70°17' E 022°18'3 6.4
2018-Jun-08 15:00N 70°14' E 022°19'1 1.6
2018-Jun-08 14:31N 70°14' E 022°21'4 7.9
2018-Jun-08 14:00N 70°18' E 022°18'612.0
2018-Jun-08 13:30N 70°24' E 022°14'610.9
2018-Jun-08 13:00N 70°29' E 022°10'0 0.0
2018-Jun-08 12:30N 70°29' E 022°10'0 0.0
2018-Jun-08 12:00N 70°29' E 022°10'0 0.0
2018-Jun-08 11:30N 70°29' E 022°10'0 0.0
2018-Jun-08 11:00N 70°29' E 022°10'0 0.0
2018-Jun-08 10:30N 70°29' E 022°10'0 0.0
2018-Jun-08 10:00N 70°29' E 022°10'0 0.0
2018-Jun-08 09:30N 70°29' E 022°10'  

Dump ship's entire track history